sensor_id;sensor_type;location;lat;lon;timestamp;pressure;altitude;pressure_sealevel;temperature;humidity
56414;BME280;42318;48.452;19.526;2023-06-22T00:04:42;98509.38;;;23.49;60.18
56414;BME280;42318;48.452;19.526;2023-06-22T00:12:13;98500.63;;;23.47;60.09
56414;BME280;42318;48.452;19.526;2023-06-22T00:19:46;98491.88;;;23.45;59.75
56414;BME280;42318;48.452;19.526;2023-06-22T00:27:17;98511.31;;;23.44;59.83
56414;BME280;42318;48.452;19.526;2023-06-22T00:34:48;98496.00;;;23.43;59.68
56414;BME280;42318;48.452;19.526;2023-06-22T00:42:20;98489.94;;;23.41;59.96
56414;BME280;42318;48.452;19.526;2023-06-22T00:49:51;98498.44;;;23.39;60.01
56414;BME280;42318;48.452;19.526;2023-06-22T00:57:24;98509.66;;;23.38;59.61
56414;BME280;42318;48.452;19.526;2023-06-22T01:04:58;98506.09;;;23.37;59.82
56414;BME280;42318;48.452;19.526;2023-06-22T01:12:32;98510.75;;;23.37;59.92
56414;BME280;42318;48.452;19.526;2023-06-22T01:20:07;98503.91;;;23.34;59.64
56414;BME280;42318;48.452;19.526;2023-06-22T01:35:14;98503.38;;;23.32;59.65
56414;BME280;42318;48.452;19.526;2023-06-22T01:42:46;98505.84;;;23.29;60.00
56414;BME280;42318;48.452;19.526;2023-06-22T01:50:17;98502.00;;;23.30;60.03
56414;BME280;42318;48.452;19.526;2023-06-22T01:57:48;98513.78;;;23.30;59.57
56414;BME280;42318;48.452;19.526;2023-06-22T02:05:22;98512.13;;;23.29;59.78
56414;BME280;42318;48.452;19.526;2023-06-22T02:12:54;98532.38;;;23.28;59.51
56414;BME280;42318;48.452;19.526;2023-06-22T02:20:26;98532.09;;;23.25;59.67
56414;BME280;42318;48.452;19.526;2023-06-22T02:27:57;98529.09;;;23.26;59.36
56414;BME280;42318;48.452;19.526;2023-06-22T02:35:29;98509.41;;;23.19;59.77
56414;BME280;42318;48.452;19.526;2023-06-22T02:43:06;98516.50;;;23.25;59.88
56414;BME280;42318;48.452;19.526;2023-06-22T02:50:36;98514.88;;;23.24;59.64
56414;BME280;42318;48.452;19.526;2023-06-22T02:58:07;98508.59;;;23.24;59.52
56414;BME280;42318;48.452;19.526;2023-06-22T03:05:39;98496.84;;;23.23;59.54
56414;BME280;42318;48.452;19.526;2023-06-22T03:13:10;98500.66;;;23.22;59.39
56414;BME280;42318;48.452;19.526;2023-06-22T03:20:41;98505.31;;;23.22;59.63
56414;BME280;42318;48.452;19.526;2023-06-22T03:28:12;98509.97;;;23.21;59.47
56414;BME280;42318;48.452;19.526;2023-06-22T03:35:43;98515.44;;;23.21;59.80
56414;BME280;42318;48.452;19.526;2023-06-22T03:43:14;98512.97;;;23.19;59.39
56414;BME280;42318;48.452;19.526;2023-06-22T03:50:44;98507.50;;;23.19;59.53
56414;BME280;42318;48.452;19.526;2023-06-22T03:58:16;98512.16;;;23.19;59.44
56414;BME280;42318;48.452;19.526;2023-06-22T04:05:49;98511.34;;;23.18;59.56
56414;BME280;42318;48.452;19.526;2023-06-22T04:13:20;98514.34;;;23.17;59.46
56414;BME280;42318;48.452;19.526;2023-06-22T04:20:51;98526.38;;;23.16;59.78
56414;BME280;42318;48.452;19.526;2023-06-22T04:28:21;98538.94;;;23.17;59.36
56414;BME280;42318;48.452;19.526;2023-06-22T04:35:52;98551.78;;;23.16;59.37
56414;BME280;42318;48.452;19.526;2023-06-22T04:43:23;98556.16;;;23.17;59.62
56414;BME280;42318;48.452;19.526;2023-06-22T04:50:54;98561.91;;;23.16;59.49
56414;BME280;42318;48.452;19.526;2023-06-22T04:58:24;98576.66;;;23.15;59.61
56414;BME280;42318;48.452;19.526;2023-06-22T05:05:59;98573.66;;;23.16;59.26
56414;BME280;42318;48.452;19.526;2023-06-22T05:13:30;98575.28;;;23.17;59.41
56414;BME280;42318;48.452;19.526;2023-06-22T05:21:00;98585.41;;;23.17;59.27
56414;BME280;42318;48.452;19.526;2023-06-22T05:28:32;98575.03;;;23.14;59.46
56414;BME280;42318;48.452;19.526;2023-06-22T05:36:03;98590.06;;;23.16;59.70
56414;BME280;42318;48.452;19.526;2023-06-22T05:43:34;98593.63;;;23.17;59.18
56414;BME280;42318;48.452;19.526;2023-06-22T05:51:05;98578.84;;;23.13;59.68
56414;BME280;42318;48.452;19.526;2023-06-22T05:58:36;98597.97;;;23.18;59.49
56414;BME280;42318;48.452;19.526;2023-06-22T06:06:07;98604.28;;;23.18;59.27
56414;BME280;42318;48.452;19.526;2023-06-22T06:13:38;98607.00;;;23.18;59.22
56414;BME280;42318;48.452;19.526;2023-06-22T06:21:09;98611.66;;;23.18;59.56
56414;BME280;42318;48.452;19.526;2023-06-22T06:28:40;98622.59;;;23.18;59.43
56414;BME280;42318;48.452;19.526;2023-06-22T06:36:11;98628.06;;;23.18;59.32
56414;BME280;42318;48.452;19.526;2023-06-22T06:43:42;98626.97;;;23.19;59.12
56414;BME280;42318;48.452;19.526;2023-06-22T06:51:13;98616.84;;;23.19;59.12
56414;BME280;42318;48.452;19.526;2023-06-22T06:58:44;98622.31;;;23.19;59.02
56414;BME280;42318;48.452;19.526;2023-06-22T07:06:15;98632.16;;;23.21;59.08
56414;BME280;42318;48.452;19.526;2023-06-22T07:13:47;98625.31;;;23.23;59.16
56414;BME280;42318;48.452;19.526;2023-06-22T07:21:18;98609.19;;;23.22;59.39
56414;BME280;42318;48.452;19.526;2023-06-22T07:28:48;98620.13;;;23.27;59.05
56414;BME280;42318;48.452;19.526;2023-06-22T07:36:21;98628.03;;;23.28;59.39
56414;BME280;42318;48.452;19.526;2023-06-22T07:43:52;98637.06;;;23.29;59.02
56414;BME280;42318;48.452;19.526;2023-06-22T07:51:22;98637.63;;;23.31;59.23
56414;BME280;42318;48.452;19.526;2023-06-22T07:58:54;98626.13;;;23.29;59.26
56414;BME280;42318;48.452;19.526;2023-06-22T08:06:25;98628.03;;;23.28;59.23
56414;BME280;42318;48.452;19.526;2023-06-22T08:13:56;98626.41;;;23.37;59.11
56414;BME280;42318;48.452;19.526;2023-06-22T08:21:29;98621.75;;;23.38;59.36
56414;BME280;42318;48.452;19.526;2023-06-22T08:29:00;98630.78;;;23.43;61.36
56414;BME280;42318;48.452;19.526;2023-06-22T08:36:30;98616.28;;;23.48;62.38
56414;BME280;42318;48.452;19.526;2023-06-22T08:44:03;98623.66;;;23.53;62.24
56414;BME280;42318;48.452;19.526;2023-06-22T08:51:34;98624.50;;;23.53;61.84
56414;BME280;42318;48.452;19.526;2023-06-22T08:59:05;98619.84;;;23.54;61.89
56414;BME280;42318;48.452;19.526;2023-06-22T09:06:38;98625.06;;;23.55;61.67
56414;BME280;42318;48.452;19.526;2023-06-22T09:14:15;98636.81;;;23.56;61.26
56414;BME280;42318;48.452;19.526;2023-06-22T09:21:46;98619.84;;;23.54;61.08
56414;BME280;42318;48.452;19.526;2023-06-22T09:29:17;98629.69;;;23.55;60.85
56414;BME280;42318;48.452;19.526;2023-06-22T09:36:47;98613.56;;;23.53;60.47
56414;BME280;42318;48.452;19.526;2023-06-22T09:44:18;98620.13;;;23.57;60.72
56414;BME280;42318;48.452;19.526;2023-06-22T09:51:49;98625.34;;;23.59;60.68
56414;BME280;42318;48.452;19.526;2023-06-22T09:59:21;98621.50;;;23.60;60.75
56414;BME280;42318;48.452;19.526;2023-06-22T10:06:52;98621.50;;;23.60;60.57
56414;BME280;42318;48.452;19.526;2023-06-22T10:14:23;98612.19;;;23.61;60.47
56414;BME280;42318;48.452;19.526;2023-06-22T10:29:25;98617.13;;;23.64;60.35
56414;BME280;42318;48.452;19.526;2023-06-22T10:36:56;98607.81;;;23.65;60.68
56414;BME280;42318;48.452;19.526;2023-06-22T10:44:27;98605.91;;;23.65;60.54
56414;BME280;42318;48.452;19.526;2023-06-22T10:51:58;98608.06;;;23.68;60.30
56414;BME280;42318;48.452;19.526;2023-06-22T10:59:29;98609.72;;;23.69;60.57
56414;BME280;42318;48.452;19.526;2023-06-22T11:07:00;98595.50;;;23.67;60.34
56414;BME280;42318;48.452;19.526;2023-06-22T11:14:30;98600.69;;;23.74;60.83
56414;BME280;42318;48.452;19.526;2023-06-22T11:22:01;98587.53;;;23.76;60.91
56414;BME280;42318;48.452;19.526;2023-06-22T11:29:32;98581.50;;;23.79;61.02
56414;BME280;42318;48.452;19.526;2023-06-22T11:37:03;98580.94;;;23.82;61.18
56414;BME280;42318;48.452;19.526;2023-06-22T11:44:33;98578.75;;;23.84;60.97
56414;BME280;42318;48.452;19.526;2023-06-22T11:52:05;98569.19;;;23.87;60.86
56414;BME280;42318;48.452;19.526;2023-06-22T11:59:36;98558.53;;;23.85;61.30
56414;BME280;42318;48.452;19.526;2023-06-22T12:07:06;98552.22;;;23.90;61.32
56414;BME280;42318;48.452;19.526;2023-06-22T12:14:37;98547.84;;;23.89;61.11
56414;BME280;42318;48.452;19.526;2023-06-22T12:22:08;98536.88;;;23.94;60.95
56414;BME280;42318;48.452;19.526;2023-06-22T12:29:39;98535.78;;;23.95;61.02
56414;BME280;42318;48.452;19.526;2023-06-22T12:37:10;98530.56;;;23.98;61.29
56414;BME280;42318;48.452;19.526;2023-06-22T12:44:41;98527.53;;;24.00;61.21
56414;BME280;42318;48.452;19.526;2023-06-22T12:52:12;98515.78;;;23.99;61.35
56414;BME280;42318;48.452;19.526;2023-06-22T12:59:43;98509.19;;;24.00;61.08
56414;BME280;42318;48.452;19.526;2023-06-22T13:07:14;98499.06;;;24.01;61.24
56414;BME280;42318;48.452;19.526;2023-06-22T13:14:44;98497.97;;;24.02;61.03
56414;BME280;42318;48.452;19.526;2023-06-22T13:29:56;98490.03;;;24.00;60.92
56414;BME280;42318;48.452;19.526;2023-06-22T13:37:27;98498.50;;;24.04;61.28
56414;BME280;42318;48.452;19.526;2023-06-22T13:44:58;98483.19;;;24.03;61.25
56414;BME280;42318;48.452;19.526;2023-06-22T13:52:29;98484.00;;;24.03;60.83
56414;BME280;42318;48.452;19.526;2023-06-22T13:59:59;98468.69;;;24.02;61.04
56414;BME280;42318;48.452;19.526;2023-06-22T14:07:30;98477.16;;;24.06;60.93
56414;BME280;42318;48.452;19.526;2023-06-22T14:15:02;98464.00;;;24.08;60.82
56414;BME280;42318;48.452;19.526;2023-06-22T14:22:33;98460.72;;;24.06;60.73
56414;BME280;42318;48.452;19.526;2023-06-22T14:30:06;98443.44;;;24.10;60.69
56414;BME280;42318;48.452;19.526;2023-06-22T14:37:37;98430.06;;;24.09;60.91
56414;BME280;42318;48.452;19.526;2023-06-22T14:45:08;98435.78;;;24.12;61.07
56414;BME280;42318;48.452;19.526;2023-06-22T14:52:38;98426.75;;;24.12;61.04
56414;BME280;42318;48.452;19.526;2023-06-22T15:00:10;98440.16;;;24.13;61.20
56414;BME280;42318;48.452;19.526;2023-06-22T15:07:40;98418.78;;;24.16;60.82
56414;BME280;42318;48.452;19.526;2023-06-22T15:15:11;98434.09;;;24.17;60.89
56414;BME280;42318;48.452;19.526;2023-06-22T15:22:42;98426.69;;;24.17;61.19
56414;BME280;42318;48.452;19.526;2023-06-22T15:30:13;98422.03;;;24.18;60.85
56414;BME280;42318;48.452;19.526;2023-06-22T15:37:45;98422.03;;;24.18;60.96
56414;BME280;42318;48.452;19.526;2023-06-22T15:45:15;98426.41;;;24.19;60.98
56414;BME280;42318;48.452;19.526;2023-06-22T15:52:47;98428.06;;;24.20;61.08
56414;BME280;42318;48.452;19.526;2023-06-22T16:00:22;98422.56;;;24.20;61.08
56414;BME280;42318;48.452;19.526;2023-06-22T16:07:55;98422.28;;;24.21;61.72
56414;BME280;42318;48.452;19.526;2023-06-22T16:15:26;98414.91;;;24.22;61.97
56414;BME280;42318;48.452;19.526;2023-06-22T16:22:57;98414.91;;;24.22;61.79
56414;BME280;42318;48.452;19.526;2023-06-22T16:30:28;98414.31;;;24.25;62.02
56414;BME280;42318;48.452;19.526;2023-06-22T16:37:59;98412.44;;;24.30;61.83
56414;BME280;42318;48.452;19.526;2023-06-22T16:45:29;98422.53;;;24.35;61.73
56414;BME280;42318;48.452;19.526;2023-06-22T16:53:05;98417.56;;;24.37;61.65
56414;BME280;42318;48.452;19.526;2023-06-22T17:00:36;98410.72;;;24.39;61.88
56414;BME280;42318;48.452;19.526;2023-06-22T17:08:08;98406.63;;;24.37;61.37
56414;BME280;42318;48.452;19.526;2023-06-22T17:15:44;98410.72;;;24.39;61.51
56414;BME280;42318;48.452;19.526;2023-06-22T17:23:15;98404.13;;;24.40;61.92
56414;BME280;42318;48.452;19.526;2023-06-22T17:30:46;98405.19;;;24.45;61.40
56414;BME280;42318;48.452;19.526;2023-06-22T17:38:21;98405.47;;;24.43;61.59
56414;BME280;42318;48.452;19.526;2023-06-22T17:45:57;98386.84;;;24.45;61.52
56414;BME280;42318;48.452;19.526;2023-06-22T17:53:28;98384.09;;;24.45;61.56
56414;BME280;42318;48.452;19.526;2023-06-22T18:00:59;98374.78;;;24.46;61.21
56414;BME280;42318;48.452;19.526;2023-06-22T18:08:30;98368.75;;;24.44;61.09
56414;BME280;42318;48.452;19.526;2023-06-22T18:16:01;98366.56;;;24.46;61.40
56414;BME280;42318;48.452;19.526;2023-06-22T18:23:33;98372.03;;;24.46;61.43
56414;BME280;42318;48.452;19.526;2023-06-22T18:31:06;98382.16;;;24.46;61.15
56414;BME280;42318;48.452;19.526;2023-06-22T18:38:41;98378.31;;;24.47;61.04
56414;BME280;42318;48.452;19.526;2023-06-22T18:46:31;98383.00;;;24.46;60.94
56414;BME280;42318;48.452;19.526;2023-06-22T18:54:03;98404.91;;;24.46;60.86
56414;BME280;42318;48.452;19.526;2023-06-22T19:01:35;98410.38;;;24.46;60.97
56414;BME280;42318;48.452;19.526;2023-06-22T19:09:15;98420.22;;;24.47;61.17
56414;BME280;42318;48.452;19.526;2023-06-22T19:16:46;98421.91;;;24.43;61.72
56414;BME280;42318;48.452;19.526;2023-06-22T19:24:30;98432.31;;;24.41;62.17
56414;BME280;42318;48.452;19.526;2023-06-22T19:32:02;98444.38;;;24.40;62.93
56414;BME280;42318;48.452;19.526;2023-06-22T19:39:36;98435.63;;;24.38;62.92
56414;BME280;42318;48.452;19.526;2023-06-22T19:47:07;98447.69;;;24.37;63.18
56414;BME280;42318;48.452;19.526;2023-06-22T19:54:39;98452.66;;;24.35;62.95
56414;BME280;42318;48.452;19.526;2023-06-22T20:02:10;98460.91;;;24.30;63.41
56414;BME280;42318;48.452;19.526;2023-06-22T20:09:41;98464.97;;;24.32;63.08
56414;BME280;42318;48.452;19.526;2023-06-22T20:17:14;98471.00;;;24.34;62.78
56414;BME280;42318;48.452;19.526;2023-06-22T20:24:45;98461.44;;;24.32;62.88
56414;BME280;42318;48.452;19.526;2023-06-22T20:32:17;98461.44;;;24.32;63.06
56414;BME280;42318;48.452;19.526;2023-06-22T20:39:47;98450.75;;;24.30;63.03
56414;BME280;42318;48.452;19.526;2023-06-22T20:47:19;98452.97;;;24.28;62.35
56414;BME280;42318;48.452;19.526;2023-06-22T20:54:51;98441.72;;;24.30;62.72
56414;BME280;42318;48.452;19.526;2023-06-22T21:02:23;98431.88;;;24.29;62.66
56414;BME280;42318;48.452;19.526;2023-06-22T21:09:53;98426.41;;;24.29;62.69
56414;BME280;42318;48.452;19.526;2023-06-22T21:17:24;98440.34;;;24.27;62.57
56414;BME280;42318;48.452;19.526;2023-06-22T21:32:36;98434.31;;;24.25;62.94
56414;BME280;42318;48.452;19.526;2023-06-22T21:40:07;98434.59;;;24.24;62.79
56414;BME280;42318;48.452;19.526;2023-06-22T21:47:38;98425.56;;;24.23;62.45
56414;BME280;42318;48.452;19.526;2023-06-22T21:55:08;98440.34;;;24.22;62.58
56414;BME280;42318;48.452;19.526;2023-06-22T22:02:39;98420.66;;;24.20;62.34
56414;BME280;42318;48.452;19.526;2023-06-22T22:10:11;98410.81;;;24.19;62.23
56414;BME280;42318;48.452;19.526;2023-06-22T22:17:43;98403.69;;;24.18;62.20
56414;BME280;42318;48.452;19.526;2023-06-22T22:25:13;98394.13;;;24.16;62.15
56414;BME280;42318;48.452;19.526;2023-06-22T22:32:44;98379.63;;;24.15;62.05
56414;BME280;42318;48.452;19.526;2023-06-22T22:40:15;98376.09;;;24.15;62.32
56414;BME280;42318;48.452;19.526;2023-06-22T22:47:46;98367.06;;;24.14;62.21
56414;BME280;42318;48.452;19.526;2023-06-22T22:55:17;98365.41;;;24.13;62.38
56414;BME280;42318;48.452;19.526;2023-06-22T23:02:49;98357.22;;;24.13;62.26
56414;BME280;42318;48.452;19.526;2023-06-22T23:10:19;98354.75;;;24.11;62.42
56414;BME280;42318;48.452;19.526;2023-06-22T23:17:50;98347.66;;;24.10;61.95
56414;BME280;42318;48.452;19.526;2023-06-22T23:25:25;98334.78;;;24.11;62.24
56414;BME280;42318;48.452;19.526;2023-06-22T23:32:56;98325.75;;;24.10;62.07
56414;BME280;42318;48.452;19.526;2023-06-22T23:40:27;98329.59;;;24.09;61.96
56414;BME280;42318;48.452;19.526;2023-06-22T23:47:58;98332.31;;;24.09;61.99
56414;BME280;42318;48.452;19.526;2023-06-22T23:55:28;98318.66;;;24.09;61.80
